Archival Weather

Chicago O'Hare International

Chicago, Illinois (KORD)

Report from: Saturday, May 20, 2023 7:51 AM CDT
Current time: Sunday, February 25, 2024 3:01 PM CST

Current weather – Weather history – Daily summaries
Weather forecast

Temperature12.2°C (54.0°F)
Dew point6.1°C (43.0°F)
Winds 10 kts (5.1 m/s, 11.5 mph) North (350°)
Visibility10 mi. (16.1 km)
Clouds Few clouds 3,000 ft. (914 m)
Altimeter30.15 in.Hg (1021 mB)
Relative humidity66 %
Density altitude-461 ft. (-141 m)
Sea-level pressure102.1 kPa (1021 mB, 30.15 in.Hg)
Remarks Automated weather observing station with precipitation discriminator
Flight conditions Visual Meteorological Conditions
Raw dataKORD 201251Z 35010KT 10SM FEW030 12/06 A3015 RMK AO2 SLP211 T01220061
An error has occurred. This application may no longer respond until reloaded. Reload 🗙